Time;durP1;ratioP1;P1;durP2;ratioP2;P2;SDS_P1;SDS_P2;PMS_P1;PMS_P2;Temp;Humidity;BMP_temperature;BMP_pressure;BME280_temperature;BME280_humidity;BME280_pressure;Samples;Min_cycle;Max_cycle;Signal;HPM_P1;HPM_P2
2021/07/11 00:00:06;;;;;;;7.87;7.07;;;;;;;16.24;88.27;100889.03;5041943;28;20211;-74
2021/07/11 00:02:34;;;;;;;8.77;6.50;;;;;;;16.18;88.19;100891.94;5045918;28;20353;-74
2021/07/11 00:05:01;;;;;;;6.93;6.23;;;;;;;16.15;89.21;100885.06;5045804;28;20225;-74
2021/07/11 00:07:29;;;;;;;9.00;6.80;;;;;;;16.12;90.10;100879.06;5047127;28;20557;-74
2021/07/11 00:09:56;;;;;;;8.27;7.07;;;;;;;16.06;88.61;100881.06;5043678;28;20195;-74
2021/07/11 00:12:23;;;;;;;7.97;6.83;;;;;;;16.04;90.44;100876.78;5051626;28;20207;-74
2021/07/11 00:14:50;;;;;;;7.53;6.83;;;;;;;15.99;90.62;100870.88;5036444;28;20777;-72
2021/07/11 00:17:17;;;;;;;7.30;6.60;;;;;;;15.93;89.23;100871.16;5039719;28;20285;-74
2021/07/11 00:19:43;;;;;;;7.70;6.83;;;;;;;15.95;89.39;100871.94;5047912;28;20209;-74
2021/07/11 00:22:10;;;;;;;7.60;6.80;;;;;;;15.96;88.74;100868.41;5040177;28;20214;-74
2021/07/11 00:24:39;;;;;;;8.60;6.27;;;;;;;15.94;89.27;100865.81;5039772;28;20225;-73
2021/07/11 00:27:06;;;;;;;7.67;6.93;;;;;;;15.92;88.80;100861.53;5041865;28;20242;-74
2021/07/11 00:29:32;;;;;;;8.00;6.70;;;;;;;15.94;88.70;100862.34;5039535;28;20209;-74
2021/07/11 00:32:00;;;;;;;7.67;6.30;;;;;;;15.92;88.49;100862.41;5044235;28;20214;-74
2021/07/11 00:34:27;;;;;;;7.53;6.73;;;;;;;15.93;88.88;100863.25;5048395;28;20319;-74
2021/07/11 00:36:54;;;;;;;7.50;6.70;;;;;;;15.92;88.18;100865.06;5038119;28;20232;-72
2021/07/11 00:39:21;;;;;;;7.80;6.50;;;;;;;15.96;87.96;100869.25;5049570;28;20210;-74
2021/07/11 00:41:48;;;;;;;7.37;6.43;;;;;;;15.95;87.81;100864.88;5039149;28;20231;-74
2021/07/11 00:44:14;;;;;;;8.23;6.83;;;;;;;15.98;88.03;100866.53;5047630;28;20241;-74
2021/07/11 00:46:47;;;;;;;8.80;6.77;;;;;;;15.96;87.35;100858.72;5040048;28;20229;-74
2021/07/11 00:49:16;;;;;;;7.27;6.43;;;;;;;15.97;88.34;100851.69;5046119;28;20207;-74
2021/07/11 00:51:45;;;;;;;7.33;6.60;;;;;;;15.93;88.52;100855.38;5049187;28;20198;-74
2021/07/11 00:54:15;;;;;;;7.30;6.60;;;;;;;15.88;89.91;100842.41;5050039;28;20242;-74
2021/07/11 00:56:44;;;;;;;7.47;6.63;;;;;;;15.84;89.91;100848.75;5045930;28;20664;-74
2021/07/11 00:59:11;;;;;;;7.83;6.47;;;;;;;15.81;89.14;100846.25;5040533;28;20209;-73
2021/07/11 01:01:41;;;;;;;7.97;6.43;;;;;;;15.83;91.99;100833.88;5036745;28;20628;-74
2021/07/11 01:04:13;;;;;;;7.77;7.03;;;;;;;15.78;91.96;100843.78;5042813;28;20723;-74
2021/07/11 01:06:44;;;;;;;7.37;6.03;;;;;;;15.71;91.22;100845.78;5051927;28;20299;-74
2021/07/11 01:09:16;;;;;;;8.17;6.53;;;;;;;15.66;90.65;100853.88;5040116;28;20214;-74
2021/07/11 01:11:50;;;;;;;7.00;6.30;;;;;;;15.65;91.50;100843.41;5048386;28;20579;-73
2021/07/11 01:14:19;;;;;;;8.47;6.93;;;;;;;15.60;92.06;100838.38;5044451;28;20558;-74
2021/07/11 01:16:49;;;;;;;8.10;7.10;;;;;;;15.58;92.97;100844.59;5047595;28;20206;-74
2021/07/11 01:19:31;;;;;;;7.97;6.93;;;;;;;15.54;93.40;100846.50;5046584;28;20202;-74
2021/07/11 01:22:04;;;;;;;10.50;7.27;;;;;;;15.55;95.15;100848.22;5043577;28;20214;-74
2021/07/11 01:24:40;;;;;;;7.00;6.30;;;;;;;15.54;96.64;100843.88;5045040;28;20268;-74
2021/07/11 01:27:08;;;;;;;7.73;6.33;;;;;;;15.46;95.78;100849.47;5040852;28;20248;-74
2021/07/11 01:29:35;;;;;;;8.20;7.40;;;;;;;15.40;95.25;100851.50;5045103;28;20206;-74
2021/07/11 01:32:03;;;;;;;7.90;7.03;;;;;;;15.41;96.41;100858.47;5042967;28;20212;-74
2021/07/11 01:34:31;;;;;;;8.23;7.40;;;;;;;15.39;97.29;100855.91;5048101;28;20318;-73
2021/07/11 01:36:58;;;;;;;9.00;8.10;;;;;;;15.32;97.25;100855.31;5046607;28;20206;-73
2021/07/11 01:39:26;;;;;;;8.80;7.50;;;;;;;15.30;97.70;100851.91;5045327;28;20241;-74
2021/07/11 01:41:54;;;;;;;8.77;7.87;;;;;;;15.28;97.00;100858.97;5044652;28;20979;-74
2021/07/11 01:44:22;;;;;;;8.87;7.70;;;;;;;15.27;99.36;100859.91;5043758;28;20316;-73
2021/07/11 01:46:51;;;;;;;8.03;7.23;;;;;;;15.18;98.21;100854.19;5042399;28;20293;-73
2021/07/11 01:49:19;;;;;;;8.47;7.50;;;;;;;15.13;99.30;100857.84;5046333;28;20319;-74
2021/07/11 01:51:52;;;;;;;9.23;8.23;;;;;;;15.06;99.44;100855.56;5045564;28;20606;-74
2021/07/11 01:54:21;;;;;;;10.03;8.07;;;;;;;15.02;99.92;100864.47;5039517;28;20247;-74
2021/07/11 01:56:48;;;;;;;8.63;7.63;;;;;;;14.96;100.00;100862.94;5051767;28;20191;-73
2021/07/11 01:59:19;;;;;;;9.53;8.03;;;;;;;14.90;100.00;100869.31;5042085;28;20226;-74
2021/07/11 02:02:05;;;;;;;9.90;7.67;;;;;;;14.85;100.00;100866.00;5038351;28;20622;-74
2021/07/11 02:04:32;;;;;;;11.10;8.30;;;;;;;14.86;100.00;100865.09;5042073;28;20301;-74
2021/07/11 02:06:59;;;;;;;9.60;8.60;;;;;;;14.81;100.00;100866.19;5063839;28;20613;-74
2021/07/11 02:09:27;;;;;;;10.50;9.40;;;;;;;14.82;100.00;100874.00;5050703;28;20609;-74
2021/07/11 02:11:58;;;;;;;10.20;7.43;;;;;;;14.82;100.00;100875.78;5049849;28;21013;-74
2021/07/11 02:14:39;;;;;;;9.43;7.70;;;;;;;14.75;100.00;100868.13;5053547;28;20223;-74
2021/07/11 02:17:10;;;;;;;11.77;9.00;;;;;;;14.71;100.00;100868.34;5048131;28;20213;-74
2021/07/11 02:19:49;;;;;;;13.07;8.70;;;;;;;14.70;100.00;100872.69;5050313;28;20232;-74
2021/07/11 02:22:16;;;;;;;10.43;8.43;;;;;;;14.62;100.00;100866.91;5041027;28;20215;-73
2021/07/11 02:24:45;;;;;;;10.27;8.53;;;;;;;14.63;100.00;100873.00;5047889;28;20222;-74
2021/07/11 02:27:19;;;;;;;10.23;9.10;;;;;;;14.56;100.00;100870.63;5044453;28;20211;-73
2021/07/11 02:29:50;;;;;;;10.07;8.87;;;;;;;14.51;100.00;100872.56;5047514;28;20210;-74
2021/07/11 02:32:19;;;;;;;10.17;8.97;;;;;;;14.54;100.00;100871.56;5048295;28;20271;-74
2021/07/11 02:34:46;;;;;;;13.57;9.50;;;;;;;14.48;100.00;100870.03;5043195;28;20278;-74
2021/07/11 02:37:18;;;;;;;11.83;9.20;;;;;;;14.45;100.00;100875.41;5051018;28;20203;-73
2021/07/11 02:39:50;;;;;;;10.47;9.37;;;;;;;14.51;100.00;100876.94;5047538;28;20625;-74
2021/07/11 02:42:20;;;;;;;13.93;10.13;;;;;;;14.49;100.00;100874.38;5048640;28;20207;-74
2021/07/11 02:44:50;;;;;;;10.23;9.13;;;;;;;14.50;100.00;100870.84;5045470;28;20255;-74
2021/07/11 02:47:25;;;;;;;10.50;9.40;;;;;;;14.50;100.00;100868.22;5048740;28;20199;-74
2021/07/11 02:49:59;;;;;;;11.57;9.53;;;;;;;14.37;100.00;100861.72;5046586;28;20665;-72
2021/07/11 02:52:26;;;;;;;11.10;9.17;;;;;;;14.32;100.00;100869.78;5046057;28;20203;-74
2021/07/11 02:54:57;;;;;;;11.30;10.10;;;;;;;14.30;100.00;100873.34;5046535;28;20224;-74
2021/07/11 02:57:27;;;;;;;11.10;9.90;;;;;;;14.32;100.00;100869.78;5047476;28;20299;-74
2021/07/11 02:59:57;;;;;;;11.97;9.77;;;;;;;14.46;100.00;100874.50;5045857;28;20226;-74
2021/07/11 03:02:27;;;;;;;11.47;9.73;;;;;;;14.40;100.00;100874.72;5046875;28;20232;-74
2021/07/11 03:04:56;;;;;;;11.57;10.00;;;;;;;14.39;100.00;100881.75;5051439;28;20226;-74
2021/07/11 03:07:23;;;;;;;12.10;10.17;;;;;;;14.42;100.00;100883.38;5043400;28;20244;-73
2021/07/11 03:09:50;;;;;;;11.70;9.80;;;;;;;14.46;100.00;100876.25;5044678;28;20211;-74
2021/07/11 03:12:19;;;;;;;11.30;9.33;;;;;;;14.54;100.00;100877.66;5043754;28;20280;-74
2021/07/11 03:14:50;;;;;;;11.93;10.20;;;;;;;14.50;100.00;100872.63;5049299;28;20297;-73
2021/07/11 03:17:21;;;;;;;12.33;9.97;;;;;;;14.57;100.00;100874.94;5046955;28;20887;-74
2021/07/11 03:19:52;;;;;;;12.17;9.83;;;;;;;14.61;100.00;100880.09;5048893;28;20198;-72
2021/07/11 03:22:23;;;;;;;11.10;9.67;;;;;;;14.66;100.00;100883.41;5043978;28;20207;-73
2021/07/11 03:24:53;;;;;;;11.97;9.43;;;;;;;14.72;100.00;100877.91;5049301;28;20228;-73
2021/07/11 03:27:21;;;;;;;9.70;8.63;;;;;;;14.68;100.00;100884.19;5056630;28;20201;-74
2021/07/11 03:30:01;;;;;;;11.53;9.70;;;;;;;14.69;100.00;100884.13;5048809;28;20575;-74
2021/07/11 03:32:30;;;;;;;9.77;8.87;;;;;;;14.80;100.00;100886.34;5050019;28;20226;-74
2021/07/11 03:35:01;;;;;;;10.30;9.20;;;;;;;14.80;100.00;100890.72;5043876;28;20230;-74
2021/07/11 03:37:32;;;;;;;9.57;8.27;;;;;;;14.88;100.00;100888.63;5051755;28;20287;-74
2021/07/11 03:40:01;;;;;;;10.03;9.00;;;;;;;14.89;100.00;100890.38;5043161;28;20209;-73
2021/07/11 03:42:33;;;;;;;10.87;8.37;;;;;;;14.95;99.39;100895.34;5050738;28;20204;-74
2021/07/11 03:45:01;;;;;;;9.43;8.37;;;;;;;15.02;98.98;100893.34;5040946;28;20217;-74
2021/07/11 03:47:35;;;;;;;11.67;8.73;;;;;;;15.08;98.22;100893.09;5043686;28;20504;-73
2021/07/11 03:50:06;;;;;;;8.67;7.77;;;;;;;15.15;97.70;100897.19;5046119;28;20233;-74
2021/07/11 03:52:40;;;;;;;8.97;8.03;;;;;;;15.18;97.82;100889.19;5042079;28;20723;-74
2021/07/11 03:55:08;;;;;;;11.50;8.47;;;;;;;15.21;97.46;100896.94;5046682;28;20252;-72
2021/07/11 03:57:36;;;;;;;8.73;7.83;;;;;;;15.27;97.00;100899.31;5046427;28;20232;-74
2021/07/11 04:00:06;;;;;;;9.80;7.97;;;;;;;15.33;94.89;100895.56;5049735;28;20210;-74
2021/07/11 04:02:40;;;;;;;9.87;7.60;;;;;;;15.39;95.85;100903.22;5047894;28;20201;-74
2021/07/11 04:05:10;;;;;;;8.67;7.67;;;;;;;15.45;96.59;100892.44;5046809;28;20327;-72
2021/07/11 04:07:37;;;;;;;9.73;7.30;;;;;;;15.48;96.23;100894.94;5043763;28;20662;-74
2021/07/11 04:10:06;;;;;;;8.43;7.47;;;;;;;15.55;94.16;100900.78;5047058;28;20213;-74
2021/07/11 04:12:33;;;;;;;9.63;7.60;;;;;;;15.65;93.94;100898.59;5047135;28;20560;-74
2021/07/11 04:14:59;;;;;;;8.43;7.40;;;;;;;15.79;93.49;100905.94;5042939;28;20595;-73
2021/07/11 04:17:29;;;;;;;7.93;7.13;;;;;;;15.92;91.91;100909.75;5048430;28;20203;-74
2021/07/11 04:19:58;;;;;;;8.00;7.00;;;;;;;16.06;90.72;100909.97;5047078;28;20215;-74
2021/07/11 04:22:27;;;;;;;8.37;6.93;;;;;;;16.19;89.85;100906.81;5044874;28;20210;-74
2021/07/11 04:24:55;;;;;;;7.90;6.73;;;;;;;16.29;88.81;100905.47;5043721;28;20614;-73
2021/07/11 04:27:24;;;;;;;8.63;6.70;;;;;;;16.41;88.15;100910.19;5045124;28;20204;-74
2021/07/11 04:29:51;;;;;;;7.80;6.70;;;;;;;16.54;87.72;100910.44;5040154;28;20226;-74
2021/07/11 04:32:18;;;;;;;8.30;6.70;;;;;;;16.67;87.67;100902.81;5046908;28;20214;-72
2021/07/11 04:34:44;;;;;;;7.63;6.07;;;;;;;16.79;86.46;100904.03;5047241;28;20589;-73
2021/07/11 04:37:12;;;;;;;7.23;6.53;;;;;;;16.88;85.69;100902.78;5041777;28;20699;-74
2021/07/11 04:39:40;;;;;;;7.20;6.13;;;;;;;16.98;85.76;100904.03;5042497;28;20281;-74
2021/07/11 04:42:07;;;;;;;7.50;5.90;;;;;;;17.10;84.71;100902.59;5043491;28;20234;-73
2021/07/11 04:44:34;;;;;;;8.13;5.70;;;;;;;17.21;84.17;100905.53;5050224;28;20222;-74
2021/07/11 04:47:01;;;;;;;6.20;5.60;;;;;;;17.37;83.32;100910.91;5048529;28;20215;-74
2021/07/11 04:49:28;;;;;;;6.73;5.77;;;;;;;17.55;83.29;100910.00;5046496;28;20218;-75
2021/07/11 04:51:56;;;;;;;7.03;5.90;;;;;;;17.70;82.19;100910.13;5043624;28;20199;-75
2021/07/11 04:54:49;;;;;;;6.60;6.00;;;;;;;17.84;81.12;100917.34;5044925;28;20220;-73
2021/07/11 04:57:16;;;;;;;6.63;5.73;;;;;;;17.95;81.47;100915.84;5043904;28;20597;-74
2021/07/11 04:59:43;;;;;;;5.67;5.17;;;;;;;18.00;80.89;100918.25;5048797;28;20207;-74
2021/07/11 05:02:10;;;;;;;6.83;5.23;;;;;;;18.09;80.46;100911.66;5042906;28;20676;-74
2021/07/11 05:04:36;;;;;;;6.77;5.63;;;;;;;18.13;80.43;100926.38;5045710;28;20216;-75
2021/07/11 05:07:03;;;;;;;5.90;5.30;;;;;;;18.22;80.63;100920.59;5044540;28;20622;-75
2021/07/11 05:09:30;;;;;;;5.50;5.00;;;;;;;18.31;80.66;100919.25;5047816;28;20226;-75
2021/07/11 05:11:57;;;;;;;5.90;5.30;;;;;;;18.39;79.67;100922.34;5038743;28;20207;-74
2021/07/11 05:14:24;;;;;;;5.40;4.90;;;;;;;18.41;80.00;100917.81;5046197;28;20231;-74
2021/07/11 05:16:50;;;;;;;5.70;5.10;;;;;;;18.46;78.89;100926.34;5046537;28;20299;-74
2021/07/11 05:19:17;;;;;;;5.27;4.77;;;;;;;18.58;81.10;100931.91;5042919;28;20212;-74
2021/07/11 05:21:43;;;;;;;5.20;4.70;;;;;;;18.69;79.72;100925.09;5047904;28;20206;-74
2021/07/11 05:24:09;;;;;;;5.53;4.83;;;;;;;18.72;79.46;100922.28;5039178;28;20253;-74
2021/07/11 05:26:36;;;;;;;5.40;4.90;;;;;;;18.79;79.48;100920.16;5045916;28;20203;-74
2021/07/11 05:29:03;;;;;;;5.63;4.87;;;;;;;18.90;78.69;100922.22;5041497;28;20505;-74
2021/07/11 05:31:30;;;;;;;5.23;4.70;;;;;;;19.08;79.18;100931.75;5043139;28;20214;-74
2021/07/11 05:33:56;;;;;;;5.10;4.53;;;;;;;19.24;77.46;100929.09;5037677;28;20234;-74
2021/07/11 05:36:23;;;;;;;8.77;5.13;;;;;;;19.30;76.72;100930.53;5047340;28;20222;-75
2021/07/11 05:38:49;;;;;;;7.00;4.97;;;;;;;19.33;75.31;100933.00;5037445;28;20256;-75
2021/07/11 05:41:16;;;;;;;5.83;4.60;;;;;;;19.36;76.28;100932.78;5051381;28;20698;-73
2021/07/11 05:43:43;;;;;;;4.77;4.33;;;;;;;19.43;76.81;100934.13;5043071;28;20402;-75
2021/07/11 05:46:11;;;;;;;5.07;4.57;;;;;;;19.52;75.78;100932.75;5045341;28;20253;-75
2021/07/11 05:48:37;;;;;;;4.67;4.27;;;;;;;19.56;74.86;100929.00;5044829;28;20233;-74
2021/07/11 05:51:04;;;;;;;4.57;4.17;;;;;;;19.60;74.61;100929.66;5050990;28;20207;-74
2021/07/11 05:53:30;;;;;;;4.50;3.93;;;;;;;19.68;73.50;100930.91;5048192;28;20190;-75
2021/07/11 05:55:56;;;;;;;4.30;3.90;;;;;;;19.80;74.00;100929.34;5047404;28;20261;-75
2021/07/11 05:58:23;;;;;;;4.63;3.93;;;;;;;19.91;72.52;100922.56;5050386;28;20290;-73
2021/07/11 06:00:49;;;;;;;4.27;3.80;;;;;;;19.99;73.16;100925.59;5045514;28;20219;-73
2021/07/11 06:03:18;;;;;;;4.60;3.73;;;;;;;20.12;73.38;100923.91;5047915;28;20195;-75
2021/07/11 06:05:45;;;;;;;4.87;4.40;;;;;;;20.24;72.79;100924.94;5042577;28;20823;-75
2021/07/11 06:08:11;;;;;;;4.13;3.73;;;;;;;20.33;73.98;100918.22;5048942;28;20601;-74
2021/07/11 06:10:37;;;;;;;6.23;4.70;;;;;;;20.39;72.33;100923.16;5042904;28;20289;-75
2021/07/11 06:13:05;;;;;;;4.73;4.23;;;;;;;20.49;72.39;100918.09;5043593;28;21740;-74
2021/07/11 06:15:32;;;;;;;5.07;4.57;;;;;;;20.55;72.80;100913.28;5049374;28;20227;-74
2021/07/11 06:17:59;;;;;;;4.97;4.23;;;;;;;20.71;72.33;100915.81;5047431;28;20781;-75
2021/07/11 06:20:26;;;;;;;4.23;3.90;;;;;;;20.77;69.98;100915.44;5049527;28;20191;-74
2021/07/11 06:22:53;;;;;;;4.40;3.90;;;;;;;20.81;69.97;100913.44;5041900;28;20200;-74
2021/07/11 06:25:19;;;;;;;5.80;3.70;;;;;;;20.95;70.77;100905.44;5046026;28;20272;-74
2021/07/11 06:27:46;;;;;;;3.93;3.50;;;;;;;21.10;70.21;100898.28;5047666;28;20207;-75
2021/07/11 06:30:14;;;;;;;4.40;3.43;;;;;;;21.19;70.18;100904.78;5046473;28;20314;-74
2021/07/11 06:32:41;;;;;;;4.83;3.17;;;;;;;21.33;68.06;100912.66;5045849;28;20595;-75
2021/07/11 06:35:10;;;;;;;3.60;3.30;;;;;;;21.46;69.43;100904.78;5048654;28;20262;-74
2021/07/11 06:37:38;;;;;;;3.30;3.00;;;;;;;21.65;68.06;100909.69;5043983;28;20207;-75
2021/07/11 06:40:06;;;;;;;3.50;3.20;;;;;;;21.71;65.65;100906.59;5049575;28;20219;-74
2021/07/11 06:42:33;;;;;;;3.20;2.90;;;;;;;21.85;66.04;100913.63;5039767;28;20552;-75
2021/07/11 06:44:59;;;;;;;3.20;2.87;;;;;;;22.00;65.79;100910.84;5053383;28;20270;-75
2021/07/11 06:47:26;;;;;;;2.80;2.50;;;;;;;22.10;64.25;100912.75;5050843;28;20789;-75
2021/07/11 06:49:52;;;;;;;3.10;2.80;;;;;;;22.21;64.03;100911.16;5044356;28;20226;-75
2021/07/11 06:52:18;;;;;;;3.40;2.57;;;;;;;22.39;64.73;100914.31;5042623;28;20203;-74
2021/07/11 06:54:48;;;;;;;3.20;2.33;;;;;;;22.54;64.86;100904.44;5041873;28;20769;-75
2021/07/11 06:57:15;;;;;;;2.50;2.30;;;;;;;22.61;61.34;100916.31;5049282;28;20202;-73
2021/07/11 06:59:41;;;;;;;3.67;2.43;;;;;;;22.68;61.38;100921.06;5043411;28;20278;-74
2021/07/11 07:02:08;;;;;;;4.27;2.20;;;;;;;22.81;60.56;100918.38;5047093;28;20614;-74
2021/07/11 07:04:34;;;;;;;2.30;2.10;;;;;;;22.89;62.92;100909.81;5045450;28;20314;-74
2021/07/11 07:07:01;;;;;;;2.30;2.10;;;;;;;23.03;62.22;100914.97;5047251;28;20210;-74
2021/07/11 07:09:27;;;;;;;2.17;1.97;;;;;;;23.14;61.57;100906.22;5046391;28;20233;-74
2021/07/11 07:11:55;;;;;;;2.60;1.90;;;;;;;23.27;59.43;100910.63;5046049;28;20195;-75
2021/07/11 07:14:21;;;;;;;2.30;1.90;;;;;;;23.36;59.70;100908.13;5041320;28;20346;-75
2021/07/11 07:16:48;;;;;;;2.30;2.10;;;;;;;23.50;59.01;100903.53;5049599;28;20279;-75
2021/07/11 07:19:14;;;;;;;2.13;1.83;;;;;;;23.56;58.85;100908.41;5045710;28;20577;-75
2021/07/11 07:21:41;;;;;;;2.13;1.85;;;;;;;23.52;57.43;100918.44;5047595;28;20804;-75
2021/07/11 07:24:07;;;;;;;2.92;1.83;;;;;;;23.61;59.31;100901.78;5045165;28;20246;-75
2021/07/11 07:26:34;;;;;;;1.80;1.70;;;;;;;23.74;58.36;100904.31;5046753;28;20203;-75
2021/07/11 07:29:02;;;;;;;2.38;2.00;;;;;;;23.92;58.02;100906.56;5048495;28;20230;-74
2021/07/11 07:31:28;;;;;;;2.30;1.92;;;;;;;24.03;56.39;100908.38;5048207;28;20778;-75
2021/07/11 07:33:55;;;;;;;2.20;2.00;;;;;;;24.00;55.81;100912.97;5042547;28;20311;-74
2021/07/11 07:36:21;;;;;;;1.83;1.73;;;;;;;23.98;54.05;100906.94;5041923;28;20199;-74
2021/07/11 07:38:47;;;;;;;2.05;1.85;;;;;;;23.92;54.25;100906.56;5045904;28;20203;-75
2021/07/11 07:41:14;;;;;;;1.95;1.85;;;;;;;23.99;54.73;100908.66;5043652;28;20207;-74
2021/07/11 07:43:40;;;;;;;1.85;1.75;;;;;;;24.09;53.20;100910.56;5048025;28;20677;-75
2021/07/11 07:46:08;;;;;;;1.80;1.70;;;;;;;24.06;52.77;100906.31;5044972;28;20577;-75
2021/07/11 07:48:35;;;;;;;2.30;1.80;;;;;;;24.07;52.59;100901.88;5048603;28;20615;-72
2021/07/11 07:51:01;;;;;;;1.63;1.52;;;;;;;24.17;53.13;100910.81;5048449;28;20219;-74
2021/07/11 07:53:27;;;;;;;2.13;1.50;;;;;;;24.17;52.72;100911.66;5044843;28;20723;-75
2021/07/11 07:55:54;;;;;;;3.45;1.63;;;;;;;24.30;53.14;100902.69;5041889;28;20223;-73
2021/07/11 07:58:20;;;;;;;2.00;1.80;;;;;;;24.38;53.70;100909.13;5044761;28;20223;-75
2021/07/11 08:00:47;;;;;;;2.05;1.65;;;;;;;24.49;51.89;100910.91;5044565;28;20183;-74
2021/07/11 08:03:14;;;;;;;1.80;1.70;;;;;;;24.65;51.74;100907.88;5048342;28;20857;-75
2021/07/11 08:05:41;;;;;;;1.95;1.73;;;;;;;24.71;52.24;100902.06;5042456;28;20230;-74
2021/07/11 08:08:09;;;;;;;2.00;1.80;;;;;;;24.75;50.25;100905.31;5046810;28;20210;-75
2021/07/11 08:10:36;;;;;;;1.65;1.55;;;;;;;24.81;48.70;100907.47;5042304;28;20223;-74
2021/07/11 08:13:02;;;;;;;2.53;1.80;;;;;;;24.99;51.66;100907.78;5041793;28;20234;-75
2021/07/11 08:15:29;;;;;;;1.98;1.88;;;;;;;24.95;48.55;100912.53;5049577;28;20221;-75
2021/07/11 08:17:55;;;;;;;2.10;1.90;;;;;;;25.03;48.56;100903.91;5041018;28;20653;-75
2021/07/11 08:20:24;;;;;;;2.35;2.10;;;;;;;25.04;49.48;100908.25;5041425;28;20191;-75
2021/07/11 08:22:52;;;;;;;2.30;2.10;;;;;;;25.21;49.03;100904.19;5038794;28;20261;-75
2021/07/11 08:25:19;;;;;;;2.13;1.90;;;;;;;25.32;48.39;100914.81;5047113;28;20680;-74
2021/07/11 08:27:47;;;;;;;3.42;2.13;;;;;;;25.49;49.17;100912.56;5038508;28;20233;-75
2021/07/11 08:30:15;;;;;;;2.53;2.33;;;;;;;25.46;49.37;100921.66;5049295;28;20435;-75
2021/07/11 08:32:42;;;;;;;3.15;2.13;;;;;;;25.27;46.87;100926.88;5040015;28;20274;-75
2021/07/11 08:35:09;;;;;;;2.33;2.13;;;;;;;25.23;47.20;100928.06;5045013;28;20227;-74
2021/07/11 08:37:37;;;;;;;3.65;2.20;;;;;;;25.32;49.34;100916.66;5045928;28;20206;-75
2021/07/11 08:40:06;;;;;;;2.47;2.28;;;;;;;25.28;47.19;100924.06;5043571;28;20625;-75
2021/07/11 08:42:34;;;;;;;2.78;2.53;;;;;;;25.39;47.23;100925.00;5042486;28;20253;-74
2021/07/11 08:45:01;;;;;;;2.65;2.10;;;;;;;25.35;46.07;100924.41;5043295;28;20235;-73
2021/07/11 08:47:27;;;;;;;2.58;2.33;;;;;;;25.44;46.75;100928.13;5024241;28;20228;-75
2021/07/11 08:49:54;;;;;;;2.63;2.13;;;;;;;25.50;48.12;100919.59;4999442;28;20213;-75
2021/07/11 08:52:20;;;;;;;2.60;2.35;;;;;;;25.60;48.69;100920.50;4998617;28;20287;-75
2021/07/11 08:54:48;;;;;;;2.15;1.95;;;;;;;25.55;45.89;100927.22;5002063;28;20235;-74
2021/07/11 08:57:14;;;;;;;2.47;2.28;;;;;;;25.69;46.09;100934.88;5012852;28;20698;-75
2021/07/11 08:59:42;;;;;;;2.63;2.42;;;;;;;25.77;47.72;100929.75;4999250;28;20211;-75
2021/07/11 09:02:11;;;;;;;2.33;1.98;;;;;;;25.78;47.09;100935.94;5002569;28;20750;-75
2021/07/11 09:04:38;;;;;;;2.83;2.63;;;;;;;25.97;45.93;100935.22;4997951;28;20213;-75
2021/07/11 09:07:05;;;;;;;2.80;2.03;;;;;;;25.97;46.47;100933.41;5000076;28;20628;-75
2021/07/11 09:09:33;;;;;;;2.30;2.10;;;;;;;26.07;49.25;100920.94;4995098;28;20224;-75
2021/07/11 09:12:06;;;;;;;2.80;2.60;;;;;;;26.09;48.45;100928.81;4999293;28;20688;-74
2021/07/11 09:14:34;;;;;;;2.88;2.67;;;;;;;25.95;46.93;100931.84;5005446;28;20231;-75
2021/07/11 09:17:03;;;;;;;2.58;2.38;;;;;;;26.06;47.44;100931.75;4995740;28;20196;-74
2021/07/11 09:19:32;;;;;;;3.22;2.92;;;;;;;26.13;47.05;100940.09;5005041;28;20203;-75
2021/07/11 09:22:01;;;;;;;3.47;2.42;;;;;;;26.17;46.57;100936.16;4995067;28;20217;-73
2021/07/11 09:24:30;;;;;;;2.53;2.33;;;;;;;25.78;45.70;100943.94;4996525;28;20248;-75
2021/07/11 09:27:07;;;;;;;2.00;1.85;;;;;;;25.78;45.53;100946.59;4997594;28;20213;-75
2021/07/11 09:29:35;;;;;;;2.00;1.80;;;;;;;26.16;46.22;100940.66;5008946;28;20308;-74
2021/07/11 09:32:02;;;;;;;2.30;2.05;;;;;;;26.07;45.63;100939.63;4996783;28;20208;-74
2021/07/11 09:34:31;;;;;;;1.92;1.77;;;;;;;26.14;44.76;100942.63;4999605;28;20232;-74
2021/07/11 09:37:06;;;;;;;2.25;2.05;;;;;;;26.26;45.39;100938.00;5000851;28;20204;-74
2021/07/11 09:39:34;;;;;;;2.03;1.80;;;;;;;26.27;44.55;100948.56;5000700;28;20929;-72
2021/07/11 09:42:04;;;;;;;2.00;1.85;;;;;;;26.25;45.10;100945.19;4998488;28;20251;-73
2021/07/11 09:44:42;;;;;;;1.95;1.80;;;;;;;26.16;45.75;100931.81;4999922;28;20236;-72
2021/07/11 09:47:16;;;;;;;2.92;2.25;;;;;;;25.98;46.54;100924.41;5002364;28;20197;-72
2021/07/11 09:49:43;;;;;;;2.40;2.20;;;;;;;26.13;48.84;100921.38;5000206;28;20228;-72
2021/07/11 09:52:09;;;;;;;2.35;2.10;;;;;;;26.33;45.13;100925.84;5010359;28;20197;-71
2021/07/11 09:54:36;;;;;;;2.30;2.08;;;;;;;26.34;45.78;100926.66;4998731;28;20231;-72
2021/07/11 09:57:08;;;;;;;2.03;1.88;;;;;;;26.45;46.10;100918.53;5001528;28;20263;-72
2021/07/11 09:59:35;;;;;;;1.85;1.75;;;;;;;26.47;45.19;100921.06;4999954;28;20913;-73
2021/07/11 10:02:03;;;;;;;2.28;2.03;;;;;;;26.41;43.98;100922.47;4998750;28;20211;-72
2021/07/11 10:04:29;;;;;;;2.95;2.15;;;;;;;26.44;45.00;100923.03;4999450;28;20728;-74
2021/07/11 10:06:56;;;;;;;2.45;2.25;;;;;;;26.58;45.68;100927.16;4994360;28;20850;-70
2021/07/11 10:09:23;;;;;;;1.98;1.80;;;;;;;26.79;45.21;100921.75;5002310;28;20224;-72
2021/07/11 10:11:49;;;;;;;1.80;1.70;;;;;;;26.77;45.15;100933.56;5001126;28;20240;-72
2021/07/11 10:14:16;;;;;;;1.88;1.77;;;;;;;26.79;45.04;100934.28;5004626;28;20259;-70
2021/07/11 10:16:43;;;;;;;2.28;1.90;;;;;;;26.88;46.69;100925.41;4995828;28;20209;-72
2021/07/11 10:19:13;;;;;;;2.47;1.90;;;;;;;26.89;45.58;100918.22;4996989;28;20300;-72
2021/07/11 10:21:44;;;;;;;1.90;1.80;;;;;;;26.96;43.67;100920.19;4996788;28;20211;-72
2021/07/11 10:24:18;;;;;;;2.10;1.90;;;;;;;26.97;43.20;100931.78;5001677;28;20232;-72
2021/07/11 10:26:44;;;;;;;3.08;1.88;;;;;;;27.00;44.08;100937.69;5003281;28;20203;-70
2021/07/11 10:29:13;;;;;;;1.70;1.60;;;;;;;27.07;44.81;100939.78;5004930;28;20204;-72
2021/07/11 10:31:43;;;;;;;1.80;1.70;;;;;;;27.02;42.58;100930.34;5010364;28;20222;-72
2021/07/11 10:34:11;;;;;;;1.80;1.70;;;;;;;27.02;42.58;100935.72;5000144;28;20323;-73
2021/07/11 10:36:39;;;;;;;2.00;1.80;;;;;;;27.10;46.29;100923.47;5000259;28;20193;-72
2021/07/11 10:39:09;;;;;;;2.78;1.80;;;;;;;27.16;44.40;100925.59;5000190;28;20223;-71
2021/07/11 10:41:47;;;;;;;2.25;1.90;;;;;;;27.23;44.77;100925.84;5003561;28;20193;-72
2021/07/11 10:44:18;;;;;;;2.47;1.95;;;;;;;27.23;42.68;100921.34;5002499;28;20819;-72
2021/07/11 10:46:48;;;;;;;2.10;1.85;;;;;;;27.20;42.88;100919.78;5004166;28;20797;-72
2021/07/11 10:49:17;;;;;;;1.73;1.63;;;;;;;27.07;41.92;100926.41;5002919;28;20209;-72
2021/07/11 10:51:46;;;;;;;1.70;1.60;;;;;;;26.99;41.51;100927.13;5008601;28;20594;-69
2021/07/11 10:54:20;;;;;;;1.60;1.50;;;;;;;27.01;42.54;100931.34;5008628;28;20233;-71
2021/07/11 10:56:46;;;;;;;1.80;1.70;;;;;;;27.03;43.47;100931.19;5006835;28;20204;-73
2021/07/11 10:59:25;;;;;;;2.63;1.83;;;;;;;26.98;41.52;100933.44;5004548;28;20197;-72
2021/07/11 11:01:52;;;;;;;2.00;1.80;;;;;;;27.00;44.95;100915.44;4999719;28;20219;-72
2021/07/11 11:04:20;;;;;;;2.03;1.77;;;;;;;27.13;41.29;100923.19;5004367;28;20224;-72
2021/07/11 11:06:46;;;;;;;1.92;1.80;;;;;;;27.18;43.90;100911.06;5002710;28;20593;-72
2021/07/11 11:09:13;;;;;;;1.73;1.63;;;;;;;27.37;44.08;100909.41;5003907;28;20194;-71
2021/07/11 11:11:39;;;;;;;1.60;1.50;;;;;;;27.51;42.83;100908.09;5000511;28;21019;-72
2021/07/11 11:14:09;;;;;;;1.60;1.50;;;;;;;27.62;42.04;100899.09;5002801;28;20723;-72
2021/07/11 11:16:45;;;;;;;1.65;1.55;;;;;;;27.67;41.72;100902.13;5002685;28;20204;-72
2021/07/11 11:19:13;;;;;;;2.28;1.70;;;;;;;27.66;41.60;100898.63;5003110;28;20224;-71
2021/07/11 11:21:42;;;;;;;1.92;1.58;;;;;;;27.48;42.47;100901.22;5005686;28;20184;-72
2021/07/11 11:24:09;;;;;;;2.42;1.58;;;;;;;27.66;42.08;100892.44;5000691;28;20228;-72
2021/07/11 11:26:35;;;;;;;1.65;1.55;;;;;;;27.72;42.52;100895.38;5000061;28;20203;-72